sensor_id;sensor_type;location;lat;lon;timestamp;pressure;altitude;pressure_sealevel;temperature;humidity
77587;BME280;66744;49.716;17.158;2023-07-09T01:33:14;99499.78;;;18.14;57.20
77587;BME280;66744;49.716;17.158;2023-07-09T01:54:06;99515.69;;;18.37;55.77
77587;BME280;66744;49.716;17.158;2023-07-09T01:58:45;99509.63;;;18.39;56.34
77587;BME280;66744;49.716;17.158;2023-07-09T02:13:00;99509.44;;;18.04;56.61
77587;BME280;66744;49.716;17.158;2023-07-09T02:25:15;99521.78;;;18.03;57.04
77587;BME280;66744;49.716;17.158;2023-07-09T02:29:11;99524.44;;;17.97;57.17
77587;BME280;66744;49.716;17.158;2023-07-09T02:37:32;99541.50;;;17.90;57.71
77587;BME280;66744;49.716;17.158;2023-07-09T03:19:13;99540.94;;;17.35;60.04
77587;BME280;66744;49.716;17.158;2023-07-09T03:23:51;99553.56;;;17.45;57.98
77587;BME280;66744;49.716;17.158;2023-07-09T03:28:02;99555.53;;;17.54;59.42
77587;BME280;66744;49.716;17.158;2023-07-09T03:31:57;99557.88;;;17.46;58.58
77587;BME280;66744;49.716;17.158;2023-07-09T03:54:26;99558.16;;;17.66;59.58
77587;BME280;66744;49.716;17.158;2023-07-09T03:59:13;99564.41;;;17.76;58.53
77587;BME280;66744;49.716;17.158;2023-07-09T04:03:50;99568.69;;;17.86;58.22
77587;BME280;66744;49.716;17.158;2023-07-09T04:08:06;99560.66;;;17.88;58.52
77587;BME280;66744;49.716;17.158;2023-07-09T04:11:51;99564.31;;;17.94;58.04
77587;BME280;66744;49.716;17.158;2023-07-09T04:16:09;99571.84;;;18.03;57.90
77587;BME280;66744;49.716;17.158;2023-07-09T04:32:19;99574.22;;;18.19;58.50
77587;BME280;66744;49.716;17.158;2023-07-09T04:41:21;99582.06;;;18.20;58.24
77587;BME280;66744;49.716;17.158;2023-07-09T04:49:44;99585.13;;;18.55;57.94
77587;BME280;66744;49.716;17.158;2023-07-09T05:01:02;99590.56;;;18.73;57.94
77587;BME280;66744;49.716;17.158;2023-07-09T05:04:57;99597.69;;;19.04;56.91
77587;BME280;66744;49.716;17.158;2023-07-09T05:12:52;99598.47;;;19.33;55.21
77587;BME280;66744;49.716;17.158;2023-07-09T05:27:46;99604.59;;;20.16;52.89
77587;BME280;66744;49.716;17.158;2023-07-09T05:36:38;99603.31;;;20.52;52.35
77587;BME280;66744;49.716;17.158;2023-07-09T05:40:20;99603.31;;;20.72;51.71
77587;BME280;66744;49.716;17.158;2023-07-09T05:44:15;99608.75;;;20.81;50.39
77587;BME280;66744;49.716;17.158;2023-07-09T05:48:40;99613.06;;;20.82;50.79
77587;BME280;66744;49.716;17.158;2023-07-09T05:52:14;99604.06;;;20.93;50.05
77587;BME280;66744;49.716;17.158;2023-07-09T05:56:07;99615.28;;;21.19;50.10
77587;BME280;66744;49.716;17.158;2023-07-09T05:59:54;99598.13;;;21.31;49.66
77587;BME280;66744;49.716;17.158;2023-07-09T06:03:46;99612.75;;;21.46;48.95
77587;BME280;66744;49.716;17.158;2023-07-09T06:07:44;99606.88;;;21.76;47.57
77587;BME280;66744;49.716;17.158;2023-07-09T06:11:07;99609.19;;;21.83;47.51
77587;BME280;66744;49.716;17.158;2023-07-09T06:14:43;99606.81;;;22.01;47.48
77587;BME280;66744;49.716;17.158;2023-07-09T06:21:50;99623.66;;;22.12;47.24
77587;BME280;66744;49.716;17.158;2023-07-09T06:25:31;99611.34;;;22.36;46.81
77587;BME280;66744;49.716;17.158;2023-07-09T06:29:08;99606.63;;;22.58;46.91
77587;BME280;66744;49.716;17.158;2023-07-09T06:32:16;99613.56;;;22.68;46.12
77587;BME280;66744;49.716;17.158;2023-07-09T06:35:36;99610.56;;;22.89;46.03
77587;BME280;66744;49.716;17.158;2023-07-09T06:38:47;99605.00;;;23.05;46.23
77587;BME280;66744;49.716;17.158;2023-07-09T06:42:43;99602.50;;;23.30;45.20
77587;BME280;66744;49.716;17.158;2023-07-09T06:46:13;99605.84;;;23.50;44.28
77587;BME280;66744;49.716;17.158;2023-07-09T06:49:37;99595.63;;;23.64;43.65
77587;BME280;66744;49.716;17.158;2023-07-09T06:53:09;99610.44;;;23.75;42.79
77587;BME280;66744;49.716;17.158;2023-07-09T06:56:20;99598.66;;;23.94;42.42
77587;BME280;66744;49.716;17.158;2023-07-09T07:07:45;99594.44;;;24.50;41.09
77587;BME280;66744;49.716;17.158;2023-07-09T07:11:35;99598.50;;;24.60;40.37
77587;BME280;66744;49.716;17.158;2023-07-09T07:15:35;99590.03;;;24.71;39.90
77587;BME280;66744;49.716;17.158;2023-07-09T07:18:45;99589.22;;;24.88;38.99
77587;BME280;66744;49.716;17.158;2023-07-09T07:22:42;99603.22;;;24.93;38.34
77587;BME280;66744;49.716;17.158;2023-07-09T07:35:08;99596.59;;;25.31;39.23
77587;BME280;66744;49.716;17.158;2023-07-09T07:38:47;99588.81;;;25.49;40.04
77587;BME280;66744;49.716;17.158;2023-07-09T07:41:53;99584.16;;;25.57;39.20
77587;BME280;66744;49.716;17.158;2023-07-09T07:44:58;99583.63;;;25.58;36.84
77587;BME280;66744;49.716;17.158;2023-07-09T07:48:03;99579.94;;;25.69;37.46
77587;BME280;66744;49.716;17.158;2023-07-09T07:51:12;99583.72;;;25.77;36.99
77587;BME280;66744;49.716;17.158;2023-07-09T07:54:14;99577.69;;;25.91;36.87
77587;BME280;66744;49.716;17.158;2023-07-09T07:57:16;99575.56;;;25.98;35.24
77587;BME280;66744;49.716;17.158;2023-07-09T08:00:20;99578.75;;;26.13;35.63
77587;BME280;66744;49.716;17.158;2023-07-09T08:03:31;99575.97;;;26.31;34.59
77587;BME280;66744;49.716;17.158;2023-07-09T08:06:32;99580.66;;;26.47;34.84
77587;BME280;66744;49.716;17.158;2023-07-09T08:09:36;99570.78;;;26.60;34.29
77587;BME280;66744;49.716;17.158;2023-07-09T08:12:41;99581.31;;;26.78;34.37
77587;BME280;66744;49.716;17.158;2023-07-09T08:15:47;99576.69;;;26.80;33.22
77587;BME280;66744;49.716;17.158;2023-07-09T08:18:53;99584.47;;;26.93;33.13
77587;BME280;66744;49.716;17.158;2023-07-09T08:21:58;99570.34;;;26.93;32.47
77587;BME280;66744;49.716;17.158;2023-07-09T08:24:59;99568.25;;;27.12;32.71
77587;BME280;66744;49.716;17.158;2023-07-09T08:28:10;99578.84;;;27.25;31.75
77587;BME280;66744;49.716;17.158;2023-07-09T08:31:12;99568.69;;;27.35;30.88
77587;BME280;66744;49.716;17.158;2023-07-09T08:34:13;99562.03;;;27.32;31.09
77587;BME280;66744;49.716;17.158;2023-07-09T08:37:15;99566.47;;;27.46;31.06
77587;BME280;66744;49.716;17.158;2023-07-09T08:40:17;99566.06;;;27.69;31.40
77587;BME280;66744;49.716;17.158;2023-07-09T08:47:18;99543.78;;;28.10;30.99
77587;BME280;66744;49.716;17.158;2023-07-09T08:50:25;99546.47;;;28.29;31.06
77587;BME280;66744;49.716;17.158;2023-07-09T08:53:43;99549.72;;;28.46;29.87
77587;BME280;66744;49.716;17.158;2023-07-09T08:56:47;99551.88;;;28.66;29.80
77587;BME280;66744;49.716;17.158;2023-07-09T09:03:39;99555.50;;;29.00;27.42
77587;BME280;66744;49.716;17.158;2023-07-09T09:06:57;99554.25;;;29.09;27.28
77587;BME280;66744;49.716;17.158;2023-07-09T09:10:33;99556.63;;;29.18;27.34
77587;BME280;66744;49.716;17.158;2023-07-09T09:13:52;99539.97;;;29.14;26.36
77587;BME280;66744;49.716;17.158;2023-07-09T09:16:58;99553.78;;;29.18;26.14
77587;BME280;66744;49.716;17.158;2023-07-09T09:20:21;99548.50;;;29.35;27.57
77587;BME280;66744;49.716;17.158;2023-07-09T09:23:37;99540.69;;;29.49;27.51
77587;BME280;66744;49.716;17.158;2023-07-09T09:26:42;99543.88;;;29.66;28.19
77587;BME280;66744;49.716;17.158;2023-07-09T09:29:46;99549.88;;;29.83;26.65
77587;BME280;66744;49.716;17.158;2023-07-09T09:32:55;99550.13;;;29.93;25.93
77587;BME280;66744;49.716;17.158;2023-07-09T09:36:02;99541.03;;;29.87;25.10
77587;BME280;66744;49.716;17.158;2023-07-09T09:39:09;99546.47;;;29.85;24.22
77587;BME280;66744;49.716;17.158;2023-07-09T09:42:11;99540.16;;;29.78;25.81
77587;BME280;66744;49.716;17.158;2023-07-09T09:45:18;99535.69;;;29.83;25.95
77587;BME280;66744;49.716;17.158;2023-07-09T09:48:28;99541.81;;;29.95;24.77
77587;BME280;66744;49.716;17.158;2023-07-09T09:51:40;99540.91;;;30.00;25.07
77587;BME280;66744;49.716;17.158;2023-07-09T09:54:56;99543.44;;;30.11;22.88
77587;BME280;66744;49.716;17.158;2023-07-09T09:58:12;99546.13;;;30.16;23.32
77587;BME280;66744;49.716;17.158;2023-07-09T10:01:18;99542.63;;;30.31;22.91
77587;BME280;66744;49.716;17.158;2023-07-09T10:04:20;99529.19;;;30.32;24.16
77587;BME280;66744;49.716;17.158;2023-07-09T10:07:34;99533.03;;;30.42;22.91
77587;BME280;66744;49.716;17.158;2023-07-09T10:10:43;99528.91;;;30.50;23.34
77587;BME280;66744;49.716;17.158;2023-07-09T10:13:47;99525.91;;;30.56;24.28
77587;BME280;66744;49.716;17.158;2023-07-09T10:16:53;99529.34;;;30.62;23.29
77587;BME280;66744;49.716;17.158;2023-07-09T10:20:26;99519.50;;;30.55;23.26
77587;BME280;66744;49.716;17.158;2023-07-09T10:24:25;99524.38;;;30.47;21.59
77587;BME280;66744;49.716;17.158;2023-07-09T10:30:49;99532.16;;;30.54;22.95
77587;BME280;66744;49.716;17.158;2023-07-09T10:34:00;99525.31;;;30.50;21.60
77587;BME280;66744;49.716;17.158;2023-07-09T10:40:55;99514.13;;;30.44;22.30
77587;BME280;66744;49.716;17.158;2023-07-09T10:44:06;99497.34;;;30.46;23.09
77587;BME280;66744;49.716;17.158;2023-07-09T10:47:43;99510.78;;;30.53;21.91
77587;BME280;66744;49.716;17.158;2023-07-09T10:50:52;99503.25;;;30.63;22.53
77587;BME280;66744;49.716;17.158;2023-07-09T10:54:15;99496.28;;;30.79;23.57
77587;BME280;66744;49.716;17.158;2023-07-09T10:57:27;99503.13;;;30.92;22.08
77587;BME280;66744;49.716;17.158;2023-07-09T11:00:38;99502.19;;;30.89;21.87
77587;BME280;66744;49.716;17.158;2023-07-09T11:03:48;99504.66;;;30.93;21.44
77587;BME280;66744;49.716;17.158;2023-07-09T11:06:52;99491.06;;;30.99;23.04
77587;BME280;66744;49.716;17.158;2023-07-09T11:09:58;99490.69;;;31.10;22.03
77587;BME280;66744;49.716;17.158;2023-07-09T11:13:16;99483.69;;;31.18;21.03
77587;BME280;66744;49.716;17.158;2023-07-09T11:16:35;99492.59;;;31.22;20.92
77587;BME280;66744;49.716;17.158;2023-07-09T11:19:42;99486.94;;;31.22;21.90
77587;BME280;66744;49.716;17.158;2023-07-09T11:23:19;99481.06;;;31.35;21.84
77587;BME280;66744;49.716;17.158;2023-07-09T11:29:29;99474.06;;;31.44;21.70
77587;BME280;66744;49.716;17.158;2023-07-09T11:32:30;99464.03;;;31.43;21.44
77587;BME280;66744;49.716;17.158;2023-07-09T11:35:46;99461.19;;;31.43;21.61
77587;BME280;66744;49.716;17.158;2023-07-09T11:38:48;99469.31;;;31.47;20.73
77587;BME280;66744;49.716;17.158;2023-07-09T11:41:50;99453.59;;;31.46;20.90
77587;BME280;66744;49.716;17.158;2023-07-09T11:45:12;99457.75;;;31.60;20.94
77587;BME280;66744;49.716;17.158;2023-07-09T11:48:24;99454.75;;;31.65;21.31
77587;BME280;66744;49.716;17.158;2023-07-09T11:51:38;99452.44;;;31.79;21.82
77587;BME280;66744;49.716;17.158;2023-07-09T11:54:41;99454.66;;;31.96;21.96
77587;BME280;66744;49.716;17.158;2023-07-09T11:57:47;99450.47;;;32.04;21.38
77587;BME280;66744;49.716;17.158;2023-07-09T12:01:00;99448.19;;;32.18;20.92
77587;BME280;66744;49.716;17.158;2023-07-09T12:04:14;99446.84;;;32.19;19.75
77587;BME280;66744;49.716;17.158;2023-07-09T12:07:25;99430.19;;;32.15;19.97
77587;BME280;66744;49.716;17.158;2023-07-09T12:10:33;99434.94;;;32.13;20.26
77587;BME280;66744;49.716;17.158;2023-07-09T12:13:41;99429.97;;;32.21;20.22
77587;BME280;66744;49.716;17.158;2023-07-09T12:16:44;99429.56;;;32.24;19.96
77587;BME280;66744;49.716;17.158;2023-07-09T12:19:51;99435.75;;;32.38;20.20
77587;BME280;66744;49.716;17.158;2023-07-09T12:22:58;99419.84;;;32.35;19.31
77587;BME280;66744;49.716;17.158;2023-07-09T12:26:06;99414.31;;;32.37;19.46
77587;BME280;66744;49.716;17.158;2023-07-09T12:29:18;99415.91;;;32.23;19.50
77587;BME280;66744;49.716;17.158;2023-07-09T12:32:23;99409.13;;;32.18;20.31
77587;BME280;66744;49.716;17.158;2023-07-09T12:35:28;99412.34;;;32.15;19.77
77587;BME280;66744;49.716;17.158;2023-07-09T12:38:49;99415.97;;;32.15;20.12
77587;BME280;66744;49.716;17.158;2023-07-09T12:41:54;99404.38;;;32.21;20.10
77587;BME280;66744;49.716;17.158;2023-07-09T12:44:57;99392.38;;;32.30;20.16
77587;BME280;66744;49.716;17.158;2023-07-09T12:48:03;99389.78;;;32.49;20.10
77587;BME280;66744;49.716;17.158;2023-07-09T12:51:08;99391.63;;;32.62;19.67
77587;BME280;66744;49.716;17.158;2023-07-09T12:54:14;99393.50;;;32.67;19.21
77587;BME280;66744;49.716;17.158;2023-07-09T12:57:16;99388.69;;;32.77;19.46
77587;BME280;66744;49.716;17.158;2023-07-09T13:00:22;99401.00;;;32.79;18.59
77587;BME280;66744;49.716;17.158;2023-07-09T13:18:52;99374.25;;;32.99;18.91
77587;BME280;66744;49.716;17.158;2023-07-09T13:22:13;99367.00;;;32.81;19.57
77587;BME280;66744;49.716;17.158;2023-07-09T13:25:17;99359.97;;;32.82;18.72
77587;BME280;66744;49.716;17.158;2023-07-09T13:28:21;99360.50;;;32.88;19.11
77587;BME280;66744;49.716;17.158;2023-07-09T13:31:33;99351.03;;;32.86;18.01
77587;BME280;66744;49.716;17.158;2023-07-09T13:34:40;99351.16;;;32.95;17.96
77587;BME280;66744;49.716;17.158;2023-07-09T13:37:45;99357.78;;;32.98;17.91
77587;BME280;66744;49.716;17.158;2023-07-09T13:40:54;99359.34;;;32.91;17.48
77587;BME280;66744;49.716;17.158;2023-07-09T13:44:16;99359.19;;;32.89;18.29
77587;BME280;66744;49.716;17.158;2023-07-09T13:47:20;99353.72;;;32.84;17.85
77587;BME280;66744;49.716;17.158;2023-07-09T13:50:24;99358.66;;;32.83;18.24
77587;BME280;66744;49.716;17.158;2023-07-09T13:53:29;99358.66;;;32.83;18.59
77587;BME280;66744;49.716;17.158;2023-07-09T13:56:31;99357.78;;;32.73;18.41
77587;BME280;66744;49.716;17.158;2023-07-09T13:59:33;99352.09;;;32.73;18.25
77587;BME280;66744;49.716;17.158;2023-07-09T14:02:43;99345.63;;;32.73;18.10
77587;BME280;66744;49.716;17.158;2023-07-09T14:05:48;99341.63;;;32.76;18.28
77587;BME280;66744;49.716;17.158;2023-07-09T14:08:50;99342.50;;;32.86;18.40
77587;BME280;66744;49.716;17.158;2023-07-09T14:11:54;99344.88;;;32.97;18.30
77587;BME280;66744;49.716;17.158;2023-07-09T14:14:59;99339.56;;;32.93;17.82
77587;BME280;66744;49.716;17.158;2023-07-09T14:18:12;99334.47;;;32.92;18.91
77587;BME280;66744;49.716;17.158;2023-07-09T14:21:18;99325.53;;;32.95;18.43
77587;BME280;66744;49.716;17.158;2023-07-09T14:24:29;99333.22;;;33.03;18.08
77587;BME280;66744;49.716;17.158;2023-07-09T14:27:30;99336.44;;;33.07;18.60
77587;BME280;66744;49.716;17.158;2023-07-09T14:30:34;99332.81;;;33.06;19.08
77587;BME280;66744;49.716;17.158;2023-07-09T14:33:36;99336.72;;;33.18;18.84
77587;BME280;66744;49.716;17.158;2023-07-09T14:36:40;99342.09;;;33.31;17.49
77587;BME280;66744;49.716;17.158;2023-07-09T14:39:42;99334.63;;;33.36;17.94
77587;BME280;66744;49.716;17.158;2023-07-09T14:43:07;99334.13;;;33.47;18.16
77587;BME280;66744;49.716;17.158;2023-07-09T14:46:50;99329.94;;;33.48;17.58
77587;BME280;66744;49.716;17.158;2023-07-09T14:49:56;99333.13;;;33.52;18.05
77587;BME280;66744;49.716;17.158;2023-07-09T14:53:16;99323.41;;;33.55;17.86
77587;BME280;66744;49.716;17.158;2023-07-09T14:56:47;99329.94;;;33.48;18.42
77587;BME280;66744;49.716;17.158;2023-07-09T14:59:49;99324.25;;;33.48;18.24
77587;BME280;66744;49.716;17.158;2023-07-09T15:02:54;99321.25;;;33.46;17.68
77587;BME280;66744;49.716;17.158;2023-07-09T15:05:59;99326.59;;;33.42;17.57
77587;BME280;66744;49.716;17.158;2023-07-09T15:09:06;99321.25;;;33.29;17.74
77587;BME280;66744;49.716;17.158;2023-07-09T15:12:36;99318.72;;;33.33;17.73
77587;BME280;66744;49.716;17.158;2023-07-09T15:15:45;99316.53;;;33.24;17.81
77587;BME280;66744;49.716;17.158;2023-07-09T15:18:50;99310.59;;;33.29;17.77
77587;BME280;66744;49.716;17.158;2023-07-09T15:21:52;99304.56;;;33.25;18.68
77587;BME280;66744;49.716;17.158;2023-07-09T15:24:56;99304.22;;;33.21;17.20
77587;BME280;66744;49.716;17.158;2023-07-09T15:27:58;99309.72;;;33.02;17.75
77587;BME280;66744;49.716;17.158;2023-07-09T15:30:59;99307.19;;;33.06;17.98
77587;BME280;66744;49.716;17.158;2023-07-09T15:34:05;99298.09;;;33.08;17.81
77587;BME280;66744;49.716;17.158;2023-07-09T15:37:16;99312.09;;;33.13;18.02
77587;BME280;66744;49.716;17.158;2023-07-09T15:40:25;99304.13;;;33.12;17.93
77587;BME280;66744;49.716;17.158;2023-07-09T15:43:30;99297.88;;;33.06;17.49
77587;BME280;66744;49.716;17.158;2023-07-09T15:46:33;99311.69;;;33.17;17.39
77587;BME280;66744;49.716;17.158;2023-07-09T15:49:35;99304.31;;;33.14;18.53
77587;BME280;66744;49.716;17.158;2023-07-09T15:52:37;99301.88;;;33.10;18.92
77587;BME280;66744;49.716;17.158;2023-07-09T15:55:39;99304.53;;;33.08;19.36
77587;BME280;66744;49.716;17.158;2023-07-09T16:02:02;99292.03;;;33.04;19.31
77587;BME280;66744;49.716;17.158;2023-07-09T16:05:22;99294.53;;;32.99;18.36
77587;BME280;66744;49.716;17.158;2023-07-09T16:08:27;99286.19;;;33.02;19.15
77587;BME280;66744;49.716;17.158;2023-07-09T16:11:28;99287.09;;;33.04;18.73
77587;BME280;66744;49.716;17.158;2023-07-09T16:14:35;99284.41;;;33.06;18.50
77587;BME280;66744;49.716;17.158;2023-07-09T16:17:37;99282.16;;;33.05;19.06
77587;BME280;66744;49.716;17.158;2023-07-09T16:20:41;99284.78;;;33.10;19.81
77587;BME280;66744;49.716;17.158;2023-07-09T16:23:42;99280.44;;;33.09;19.60
77587;BME280;66744;49.716;17.158;2023-07-09T16:26:47;99279.31;;;33.05;19.58
77587;BME280;66744;49.716;17.158;2023-07-09T16:29:49;99270.84;;;32.97;18.44
77587;BME280;66744;49.716;17.158;2023-07-09T16:32:51;99278.06;;;32.98;19.20
77587;BME280;66744;49.716;17.158;2023-07-09T16:35:53;99279.78;;;32.93;20.36
77587;BME280;66744;49.716;17.158;2023-07-09T16:38:55;99282.06;;;32.95;19.65
77587;BME280;66744;49.716;17.158;2023-07-09T16:41:57;99286.66;;;32.90;18.30
77587;BME280;66744;49.716;17.158;2023-07-09T16:46:42;99277.16;;;32.71;21.73
77587;BME280;66744;49.716;17.158;2023-07-09T16:49:44;99278.81;;;32.57;23.21
77587;BME280;66744;49.716;17.158;2023-07-09T16:52:46;99275.47;;;32.43;23.56
77587;BME280;66744;49.716;17.158;2023-07-09T16:55:50;99282.16;;;32.38;23.75
77587;BME280;66744;49.716;17.158;2023-07-09T16:58:52;99273.31;;;32.26;22.90
77587;BME280;66744;49.716;17.158;2023-07-09T17:01:54;99284.34;;;32.22;23.01
77587;BME280;66744;49.716;17.158;2023-07-09T17:04:58;99287.09;;;32.13;24.02
77587;BME280;66744;49.716;17.158;2023-07-09T17:08:03;99280.09;;;32.06;23.76
77587;BME280;66744;49.716;17.158;2023-07-09T17:11:04;99282.94;;;31.99;24.88
77587;BME280;66744;49.716;17.158;2023-07-09T17:14:10;99279.41;;;31.90;25.63
77587;BME280;66744;49.716;17.158;2023-07-09T17:17:20;99283.97;;;31.86;25.96
77587;BME280;66744;49.716;17.158;2023-07-09T17:20:29;99285.88;;;31.83;24.86
77587;BME280;66744;49.716;17.158;2023-07-09T17:23:31;99280.00;;;31.81;26.18
77587;BME280;66744;49.716;17.158;2023-07-09T17:26:34;99269.56;;;31.84;25.36
77587;BME280;66744;49.716;17.158;2023-07-09T17:29:39;99284.09;;;32.03;25.88
77587;BME280;66744;49.716;17.158;2023-07-09T17:32:43;99277.78;;;32.12;25.55
77587;BME280;66744;49.716;17.158;2023-07-09T17:35:46;99283.34;;;32.03;26.05
77587;BME280;66744;49.716;17.158;2023-07-09T17:38:49;99278.88;;;31.84;26.11
77587;BME280;66744;49.716;17.158;2023-07-09T17:41:51;99279.16;;;31.64;25.67
77587;BME280;66744;49.716;17.158;2023-07-09T17:44:52;99285.25;;;31.45;26.58
77587;BME280;66744;49.716;17.158;2023-07-09T17:47:54;99277.00;;;31.32;26.17
77587;BME280;66744;49.716;17.158;2023-07-09T17:50:56;99290.97;;;31.30;26.82
77587;BME280;66744;49.716;17.158;2023-07-09T17:53:58;99285.16;;;31.20;26.80
77587;BME280;66744;49.716;17.158;2023-07-09T17:57:01;99280.84;;;31.04;27.93
77587;BME280;66744;49.716;17.158;2023-07-09T18:00:04;99294.84;;;31.02;27.93
77587;BME280;66744;49.716;17.158;2023-07-09T18:03:11;99282.72;;;30.87;26.78
77587;BME280;66744;49.716;17.158;2023-07-09T18:06:20;99282.75;;;30.79;26.79
77587;BME280;66744;49.716;17.158;2023-07-09T18:09:22;99280.84;;;30.66;26.79
77587;BME280;66744;49.716;17.158;2023-07-09T18:12:28;99279.53;;;30.52;27.91
77587;BME280;66744;49.716;17.158;2023-07-09T18:15:34;99285.78;;;30.43;28.01
77587;BME280;66744;49.716;17.158;2023-07-09T18:18:55;99289.50;;;30.30;27.88
77587;BME280;66744;49.716;17.158;2023-07-09T18:22:05;99282.50;;;30.16;27.79
77587;BME280;66744;49.716;17.158;2023-07-09T18:25:17;99286.25;;;30.11;28.13
77587;BME280;66744;49.716;17.158;2023-07-09T18:28:26;99296.25;;;29.97;28.68
77587;BME280;66744;49.716;17.158;2023-07-09T18:31:31;99294.34;;;29.92;28.35
77587;BME280;66744;49.716;17.158;2023-07-09T18:34:32;99290.75;;;29.84;28.71
77587;BME280;66744;49.716;17.158;2023-07-09T18:37:35;99301.47;;;29.78;28.04
77587;BME280;66744;49.716;17.158;2023-07-09T18:40:44;99304.59;;;29.67;28.22
77587;BME280;66744;49.716;17.158;2023-07-09T18:43:47;99313.81;;;29.52;29.94
77587;BME280;66744;49.716;17.158;2023-07-09T18:46:50;99302.41;;;29.37;29.89
77587;BME280;66744;49.716;17.158;2023-07-09T18:50:07;99314.03;;;29.26;30.78
77587;BME280;66744;49.716;17.158;2023-07-09T18:53:34;99314.53;;;29.17;30.55
77587;BME280;66744;49.716;17.158;2023-07-09T18:56:49;99313.31;;;29.05;30.81
77587;BME280;66744;49.716;17.158;2023-07-09T19:00:00;99320.44;;;28.98;30.89
77587;BME280;66744;49.716;17.158;2023-07-09T19:03:15;99333.91;;;28.85;31.60
77587;BME280;66744;49.716;17.158;2023-07-09T19:06:20;99328.13;;;28.70;33.33
77587;BME280;66744;49.716;17.158;2023-07-09T19:13:40;99342.06;;;28.13;36.27
77587;BME280;66744;49.716;17.158;2023-07-09T19:17:26;99341.47;;;27.94;35.58
77587;BME280;66744;49.716;17.158;2023-07-09T19:20:44;99356.13;;;27.92;35.73
77587;BME280;66744;49.716;17.158;2023-07-09T19:23:46;99352.19;;;27.95;35.01
77587;BME280;66744;49.716;17.158;2023-07-09T19:26:51;99362.22;;;27.83;36.39
77587;BME280;66744;49.716;17.158;2023-07-09T19:30:06;99374.00;;;27.61;35.58
77587;BME280;66744;49.716;17.158;2023-07-09T19:33:37;99384.69;;;27.36;36.50
77587;BME280;66744;49.716;17.158;2023-07-09T19:37:19;99382.06;;;27.12;36.78
77587;BME280;66744;49.716;17.158;2023-07-09T19:40:28;99378.34;;;26.91;36.44
77587;BME280;66744;49.716;17.158;2023-07-09T19:43:34;99387.47;;;26.84;36.17
77587;BME280;66744;49.716;17.158;2023-07-09T19:46:44;99395.47;;;26.61;37.90
77587;BME280;66744;49.716;17.158;2023-07-09T19:50:14;99389.91;;;26.56;37.77
77587;BME280;66744;49.716;17.158;2023-07-09T19:53:23;99395.16;;;26.33;38.83
77587;BME280;66744;49.716;17.158;2023-07-09T19:56:30;99403.22;;;26.23;38.63
77587;BME280;66744;49.716;17.158;2023-07-09T20:00:03;99394.34;;;26.14;39.06
77587;BME280;66744;49.716;17.158;2023-07-09T20:03:33;99399.63;;;26.23;38.90
77587;BME280;66744;49.716;17.158;2023-07-09T20:06:41;99401.31;;;26.31;38.73
77587;BME280;66744;49.716;17.158;2023-07-09T20:09:46;99392.38;;;25.90;39.63
77587;BME280;66744;49.716;17.158;2023-07-09T20:12:50;99402.66;;;25.39;40.89
77587;BME280;66744;49.716;17.158;2023-07-09T20:15:52;99392.16;;;25.15;41.24
77587;BME280;66744;49.716;17.158;2023-07-09T20:18:58;99390.88;;;25.16;41.45
77587;BME280;66744;49.716;17.158;2023-07-09T20:22:00;99388.50;;;25.26;41.52
77587;BME280;66744;49.716;17.158;2023-07-09T20:25:19;99395.66;;;25.27;42.11
77587;BME280;66744;49.716;17.158;2023-07-09T20:28:24;99388.63;;;25.15;41.92
77587;BME280;66744;49.716;17.158;2023-07-09T20:31:34;99391.81;;;25.00;43.32
77587;BME280;66744;49.716;17.158;2023-07-09T20:34:36;99398.34;;;24.84;43.46
77587;BME280;66744;49.716;17.158;2023-07-09T20:37:51;99399.91;;;24.74;43.10
77587;BME280;66744;49.716;17.158;2023-07-09T20:40:55;99401.50;;;24.69;43.51
77587;BME280;66744;49.716;17.158;2023-07-09T20:43:56;99404.09;;;24.67;43.89
77587;BME280;66744;49.716;17.158;2023-07-09T20:46:58;99416.28;;;24.75;43.42
77587;BME280;66744;49.716;17.158;2023-07-09T20:49:59;99423.31;;;24.58;43.48
77587;BME280;66744;49.716;17.158;2023-07-09T20:53:06;99419.81;;;24.46;44.21
77587;BME280;66744;49.716;17.158;2023-07-09T20:56:12;99406.16;;;24.20;45.35
77587;BME280;66744;49.716;17.158;2023-07-09T20:59:18;99421.50;;;24.19;45.08
77587;BME280;66744;49.716;17.158;2023-07-09T21:02:23;99419.47;;;24.14;45.55
77587;BME280;66744;49.716;17.158;2023-07-09T21:05:31;99427.19;;;23.97;45.16
77587;BME280;66744;49.716;17.158;2023-07-09T21:08:33;99417.25;;;23.91;45.41
77587;BME280;66744;49.716;17.158;2023-07-09T21:11:37;99412.72;;;23.82;44.83
77587;BME280;66744;49.716;17.158;2023-07-09T21:14:42;99416.81;;;23.81;45.34
77587;BME280;66744;49.716;17.158;2023-07-09T21:17:47;99416.53;;;23.79;46.28
77587;BME280;66744;49.716;17.158;2023-07-09T21:20:48;99414.03;;;23.64;46.59
77587;BME280;66744;49.716;17.158;2023-07-09T21:23:50;99412.28;;;23.61;46.05
77587;BME280;66744;49.716;17.158;2023-07-09T21:26:55;99425.53;;;23.61;46.34
77587;BME280;66744;49.716;17.158;2023-07-09T21:30:05;99408.97;;;23.52;46.15
77587;BME280;66744;49.716;17.158;2023-07-09T21:33:15;99421.47;;;23.56;46.95
77587;BME280;66744;49.716;17.158;2023-07-09T21:36:20;99416.38;;;23.49;46.77
77587;BME280;66744;49.716;17.158;2023-07-09T21:39:23;99422.22;;;23.62;46.19
77587;BME280;66744;49.716;17.158;2023-07-09T21:42:25;99418.63;;;23.67;44.90
77587;BME280;66744;49.716;17.158;2023-07-09T21:45:33;99409.97;;;23.65;46.17
77587;BME280;66744;49.716;17.158;2023-07-09T21:48:35;99415.88;;;23.51;47.08
77587;BME280;66744;49.716;17.158;2023-07-09T21:51:36;99409.50;;;23.28;47.87
77587;BME280;66744;49.716;17.158;2023-07-09T21:54:48;99406.75;;;23.06;47.98
77587;BME280;66744;49.716;17.158;2023-07-09T21:57:57;99423.59;;;23.06;48.31
77587;BME280;66744;49.716;17.158;2023-07-09T22:00:59;99413.16;;;23.01;48.21